Česky Dansk Deutsch English Español Suomi Français Magyar Italiano Nederlands norsk Polski Português svenska Türkçe

 

Het Weer

Adler (Rusland)

00:30, 30 juillet 2016 (GMT)

NWNNE
WE
SWSSE
Home            
Adler Krasnodar Anapa / Vitiazevo Mineral'Nye Vody Stavropol / Shpakovskoye Trabzon Nalchik Samsun / Carsamba Samsun Erzurum Kars Erzincan Muhrani Rostov-Na-Donu Tokat Tbilisi Merzifon Sivas Elista Simferopol Yerevan Elazig Mus Tur-Afb

Om een weerknop op uw website of weblog te plaatsen, copieer onderstaande code en plak die in uw pagina. In het eerste vakje staat HTML-code, in het tweede vakje UBB-code.


Add to Google

Details

Wind speed:3 bf, 7.8 kn, 4 m/s, 8.9 miles/h, 14.4 km/h
Wind direction:ENE, 060°
Näkyvyys:Supérieure à 10000 m, 10 km, 32800 ft, 6.2 miles
Température:21°C, 70°F
Point de rosée:18°C, 64°F
Pression atmosphérique:1008 hPa, 756.1 mmHg, 29.77 inHg, 0.995 atm
Humidité relative:83.0 %
METAR:URSS 300030Z 06004MPS 9999 NSC 21/18 Q1008 R06/090070 R02/090070 NOSIG RMK R02/06001MPS QFE755

Snelkoppelingen

Actuele weersinformatie van de hele wereld. Voeg locaties toe met het plus (+) symbool. Deze snelkoppelingen kunnen worden toegevoegd aan Google.

Lid van de Technetium groep

website free tracking
StatCounter NetStat W3C Validator

02-10-2022 11:39:19
astro.technetium.be money.technetium.be phote.technetium.be tafeltennistafel.technetium.be www.ligfiets.net